ADDS METAR Data INFO
IDs: Format: Raw Decoded Include TAF

Data at: 1235 UTC 22 Feb 2018

PAJC 221157Z AUTO 26010G19KT 220V300 10SM BKN022 OVC048 05/01 A3029 RMK AO2 PK WND 25030/1110 RAE48 SLP258 P0001 60006 70008 T00500011 10061 20033 53009
PAJC 221150Z AUTO VRB06KT 10SM BKN020 OVC045 05/01 A3029 RMK AO2 PK WND 25030/1110 RAE48 P0001
PAJC 221140Z AUTO 24008G19KT 210V290 10SM -RA SCT020 SCT028 OVC044 05/02 A3029 RMK AO2 PK WND 25030/1110 P0001
PAJC 221033Z AUTO VRB06KT 10SM -RA SCT013 BKN019 OVC036 06/04 A3027 RMK AO2 P0000
PAJC 221028Z AUTO 00000KT 10SM -RA BKN013 OVC021 05/04 A3027 RMK AO2 P0000
PAJC 221007Z AUTO 25006KT 9SM -RA FEW011 BKN021 OVC042 04/04 A3027 RMK AO2 P0000
PAJC 220957Z AUTO 31009KT 10SM -RA FEW011 BKN031 OVC040 04/03 A3027 RMK AO2 SLP250 P0002 T00390033
PAJC 220935Z AUTO 00000KT 10SM -RA SCT005 OVC040 04/03 A3025 RMK AO2 P0001
PAJC 220913Z AUTO 13003KT 9SM -RA OVC005 04/03 A3026 RMK AO2 P0001
PAJC 220844Z AUTO 00000KT 6SM -RA BR BKN003 BKN037 OVC065 04/03 A3026 RMK AO2 P0000
PAJC 220840Z AUTO 00000KT 7SM -RA BKN005 BKN014 OVC065 04/03 A3026 RMK AO2 CIG 003V008 P0000
PAJC 220830Z AUTO 00000KT 10SM -RA SCT005 BKN037 OVC065 04/04 A3026 RMK AO2 P0000
PAJC 220825Z AUTO 00000KT 10SM -RA SCT005 BKN015 OVC070 04/03 A3026 RMK AO2 P0000
PAJC 220757Z AUTO 17003KT 10SM -RA BKN005 OVC013 04/03 A3028 RMK AO2 SLP254 P0001 T00390033 400610022
PAJC 220732Z AUTO 00000KT 9SM -RA BKN005 BKN030 OVC036 04/03 A3027 RMK AO2 CIG 003V007 P0001
PAJC 220718Z AUTO 06003KT 7SM -RA BKN003 BKN007 OVC030 03/03 A3029 RMK AO2 P0001
PAJC 220712Z AUTO 04003KT 6SM -RA BR SCT003 BKN016 OVC030 03/03 A3028 RMK AO2 P0000
PAJC 220657Z AUTO 34004KT 8SM -RA FEW005 OVC030 03/03 A3029 RMK AO2 SLP256 P0002 T00330033
PAJC 220651Z AUTO 00000KT 7SM -RA FEW005 SCT016 OVC030 04/03 A3029 RMK AO2 P0002
PAJC 220642Z AUTO 36003KT 6SM RA BR SCT005 BKN028 OVC040 04/03 A3028 RMK AO2 P0001
PAJC 220616Z AUTO 00000KT 8SM -RA SCT009 OVC034 04/03 A3030 RMK AO2 P0000
PAJC 220557Z AUTO 00000KT 10SM -RA BKN009 BKN030 OVC042 04/03 A3031 RMK AO2 CIG 008V015 P0001
PAJC 220553Z AUTO 00000KT 10SM -RA SCT009 BKN019 OVC044 04/03 A3031 RMK AO2 CIG 015V025 P0001
PAJC 220544Z AUTO 00000KT 10SM -RA SCT009 BKN030 OVC055 04/03 A3030 RMK AO2 P0001
PAJC 220537Z AUTO 14004KT 8SM -RA SCT009 BKN028 OVC044 04/03 A3031 RMK AO2 P0001
PAJC 220526Z AUTO 00000KT 9SM -RA FEW009 BKN047 OVC070 04/03 A3031 RMK AO2 P0001
PAJC 220357Z AUTO 00000KT 10SM OVC055 05/04 A3033 RMK AO2 RAE57 SLP272 P0000 T00500039
PAJC 212357Z AUTO 34004KT 10SM OVC070 06/03 A3039 RMK AO2 SLP291 60000 T00610028 10061 20028 58017
PAJC 212257Z AUTO 19003KT 10SM FEW047 BKN070 OVC090 06/03 A3041 RMK AO2 SLP298 T00560028
PAJC 212157Z AUTO 00000KT 10SM BKN090 04/03 A3042 RMK AO2 SLP303 T00440033
PAJC 212057Z AUTO 13003KT 10SM BKN033 BKN043 OVC080 04/03 A3044 RMK AO2 RAE11 SLP308 P0000 60000 T00390033 50000
PAJC 211957Z AUTO 35004KT 10SM -RA FEW005 BKN033 OVC075 03/03 A3044 RMK AO2 RAE10B37 SLP310 P0000 T00330033
PAJC 211941Z AUTO 00000KT 10SM -RA SCT003 BKN035 OVC075 03/03 A3044 RMK AO2 RAE10B37 P0000
PAJC 211920Z AUTO VRB03KT 7SM BKN003 BKN039 OVC060 03/03 A3044 RMK AO2 RAE10 CIG 001V005 P0000
PAJC 211916Z AUTO 00000KT 5SM BR SCT003 BKN039 OVC060 03/03 A3045 RMK AO2 RAE10 P0000
PAJC 211906Z AUTO 00000KT 3SM -RA BR BKN003 BKN039 OVC060 03/03 A3044 RMK AO2 CIG 001V005 P0000
PAJC 211859Z AUTO 00000KT 1 1/4SM -RA BR BKN003 BKN039 OVC065 03/03 A3044 RMK AO2 RAB50 P0000
PAJC 211843Z AUTO 00000KT 3/4SM BR OVC003 03/03 A3044 RMK AO2
PAJC 211838Z AUTO 33005KT 1SM BR OVC003 03/03 A3043 RMK AO2
PAJC 211822Z AUTO 18003KT 3/4SM BR OVC003 03/02 A3044 RMK AO2
PAJC 211747Z AUTO 00000KT 1/4SM FG OVC003 02/02 A3045 RMK AO2 RAE10 P0000 FZRANO
PAJC 211742Z AUTO 00000KT 1/2SM FG OVC003 02/02 A3045 RMK AO2 RAE10 P0000 FZRANO
PAJC 211706Z AUTO 00000KT 3/4SM -RA BR OVC003 02/02 A3046 RMK AO2 CIG 002V007 P0000 FZRANO
PAJC 211659Z AUTO 33004KT 1/2SM -RA FG OVC003 02/02 A3046 RMK AO2 RAB55 CIG 002V007 SLP314 P0000 T00220022 FZRANO
PAJC 211657Z AUTO 00000KT 1/2SM -RA FG OVC003 02/02 A3046 RMK AO2 RAB55 CIG 002V007 P0000 FZRANO
PAJC 211647Z AUTO 04003KT 3/4SM BR OVC003 02/02 A3046 RMK AO2 FZRANO
PAJC 211635Z AUTO 00000KT 1SM BR OVC003 02/02 A3047 RMK AO2 FZRANO
PAJC 211631Z AUTO 14005KT 1 1/4SM BR OVC003 02/02 A3047 RMK AO2 FZRANO
PAJC 211625Z AUTO 15005KT 2 1/2SM BR OVC003 02/02 A3047 RMK AO2 VIS 1 1/2V5 FZRANO
PAJC 211613Z AUTO 00000KT 1 1/4SM BR OVC003 02/02 A3047 RMK AO2 FZRANO
PAJC 211557Z AUTO 00000KT 10SM OVC003 02/02 A3046 RMK AO2 RAE38 SLP316 P0000 T00220022 FZRANO
PAJC 211550Z AUTO 00000KT 3SM BR OVC003 02/02 A3046 RMK AO2 RAE38 P0000 FZRANO
PAJC 211546Z AUTO 00000KT 2 1/2SM BR OVC003 02/02 A3046 RMK AO2 RAE38 P0000 FZRANO
PAJC 211541Z AUTO 10003KT 1 1/4SM BR OVC003 02/02 A3046 RMK AO2 RAE38 P0000 FZRANO
PAJC 211539Z AUTO 12003KT 3/4SM BR OVC003 02/02 A3046 RMK AO2 RAE38 P0000 FZRANO
PAJC 211529Z AUTO 00000KT 1/2SM -RA FG OVC003 02/02 A3046 RMK AO2 P0000 FZRANO
PAJC 211508Z AUTO 00000KT 1/4SM -RA FG OVC003 02/02 A3047 RMK AO2 P0000 FZRANO
PAJC 211459Z AUTO 00000KT 1/2SM -RA FG OVC003 02/02 A3046 RMK AO2 RAB06 SLP316 P0000 60000 T00220022 56007 FZRANO
PAJC 211457Z AUTO 00000KT 1/2SM -RA FG OVC003 02/02 A3047 RMK AO2 RAB06 P0000 FZRANO
PAJC 211453Z AUTO 36003KT 1/4SM -RA FG OVC003 02/02 A3046 RMK AO2 RAB06 P0000 FZRANO
PAJC 211429Z AUTO 21004KT 1/2SM -RA FG OVC003 02/02 A3046 RMK AO2 RAB06 P0000 FZRANO
PAJC 211415Z AUTO 00000KT 1/4SM -RA FG OVC003 02/02 A3046 RMK AO2 RAB06 P0000 FZRANO
PAJC 211357Z AUTO 00000KT 1/2SM FG OVC003 03/02 A3046 RMK AO2 SLP316 T00280022
PAJC 211257Z AUTO 00000KT 1/2SM FG OVC003 02/02 A3048 RMK AO2 RAB29E50 SLP323 P0000 T00220022 FZRANO
PAJC 210757Z AUTO 00000KT 10SM OVC005 03/02 A3054 RMK AO2 SLP341 T00280022 400610011
PAJC 210718Z AUTO 00000KT 10SM BKN005 03/02 A3054 RMK AO2
PAJC 210657Z AUTO 14005KT 10SM SCT007 03/02 A3054 RMK AO2 SLP341 T00280017
PAJC 210631Z AUTO 00000KT 10SM BKN009 03/02 A3054 RMK AO2 CIG 006V012
PAJC 210624Z AUTO 00000KT 10SM BKN011 03/02 A3054 RMK AO2
PAJC 210607Z AUTO 30003KT 10SM FEW009 03/02 A3054 RMK AO2
PAJC 210557Z AUTO 00000KT 10SM CLR 03/02 A3054 RMK AO2 SLP341 60000 T00330017 10050 20028 56001